Accueil
METAR-TAF:

METAR-TAF

Aéroports :

Odiham, Angleterre

latitude: 51-14N, longitude: 000-57W, altitude: 123 m

Observation

Le bulletin a été fait il y a 1 heure et 16 minutes, à 01:50 UTC
Vent 1 kt de nord
Température 8°C
Humidité 76%
Pression 1025 hPa
Visibilité 10 km ou plus

METAR: EGVO 080150Z AUTO 36001KT 9999 BKN110/// 08/04 Q1025

Heure: 04:06 (03:06 UTC)

Prévision

Le bulletin a été fait il y a 4 heures et 30 minutes, à 22:36 UTC
Prévision valable du 08 à 00 UTC au 08 à 12 UTC
Vent 3 kt de direction variable
Visibilité 10 km ou plus
pas de nuages en-dessous de 1500 mètres et pas de cumulonimbus.
Probabilité 40%
du 08 à 03 UTC au 08 à 09 UTC
Visibilité: 5000 m
brume

TAF: EGVO 072236Z 0800/0812 VRB03KT CAVOK PROB40 0803/0809 5000 BR

Observations et prévisions météorologiques de plus de 4000 aéroports (messages METAR et TAF).

Les stations disponibles sont représentées par des disques jaunes et rouges sur la carte.

Passer la souris dessus pour voir le nom de la station.

Cliquer dessus pour voir les observations et prévisions météorologiques.

Pour changer de carte: cliquez sur les boutons verts avec une croix noire pour zoomer, sur le bouton vert avec un tiret pour effectuer un zoom arrière, ou sur les flèches vertes pour les cartes adjacentes.


METAR-TAF: